Time;durP1;ratioP1;P1;durP2;ratioP2;P2;SDS_P1;SDS_P2;PMS_P1;PMS_P2;Temp;Humidity;BMP_temperature;BMP_pressure;BME280_temperature;BME280_humidity;BME280_pressure;Samples;Min_cycle;Max_cycle;Signal;HPM_P1;HPM_P2
2022/06/03 00:02:37;;;;;;;12.13;7.07;;;;;;;22.38;70.89;100645.28;4945966;28;20023;-73
2022/06/03 00:05:27;;;;;;;14.27;6.35;;;;;;;22.26;71.19;100663.59;4946380;28;20051;-72
2022/06/03 00:08:31;;;;;;;10.43;6.43;;;;;;;21.57;71.55;100586.44;4942968;28;20059;-72
2022/06/03 00:11:15;;;;;;;12.05;6.82;;;;;;;21.85;71.14;100601.28;4894056;28;20043;-72
2022/06/03 00:14:10;;;;;;;16.52;5.90;;;;;;;22.28;71.24;100671.56;4942449;28;20047;-71
2022/06/03 00:16:57;;;;;;;12.43;6.70;;;;;;;22.17;71.91;100668.44;4920695;28;20062;-73
2022/06/03 00:19:56;;;;;;;11.35;6.90;;;;;;;21.96;71.98;100668.47;4940170;28;20487;-73
2022/06/03 00:22:21;;;;;;;18.77;7.40;;;;;;;21.90;72.47;100679.41;4919586;28;20051;-71
2022/06/03 00:25:24;;;;;;;13.02;7.70;;;;;;;21.87;72.49;100679.56;4941075;28;20055;-72
2022/06/03 00:27:59;;;;;;;13.43;6.43;;;;;;;21.95;72.15;100677.41;4939030;28;20194;-72
2022/06/03 00:30:33;;;;;;;11.52;7.10;;;;;;;22.06;72.05;100683.16;4940586;28;20035;-72
2022/06/03 00:33:02;;;;;;;11.23;6.82;;;;;;;21.81;72.70;100683.34;4942497;28;20039;-72
2022/06/03 00:36:11;;;;;;;10.73;7.50;;;;;;;21.21;73.76;100628.84;4948395;28;20046;-72
2022/06/03 00:38:59;;;;;;;10.85;7.15;;;;;;;21.39;74.16;100691.31;4946969;28;20062;-72
2022/06/03 00:41:48;;;;;;;15.02;6.93;;;;;;;21.33;73.83;100660.41;4918540;28;20051;-72
2022/06/03 00:44:32;;;;;;;10.30;5.97;;;;;;;21.14;75.45;100707.41;4945083;28;20073;-72
2022/06/03 00:47:04;;;;;;;10.43;6.32;;;;;;;20.40;76.33;100630.19;4946305;28;20142;-71
2022/06/03 00:50:07;;;;;;;10.23;7.35;;;;;;;20.93;76.59;100703.78;4943121;28;20122;-72
2022/06/03 00:53:05;;;;;;;12.95;7.78;;;;;;;21.00;76.01;100706.16;4949203;28;20082;-72
2022/06/03 00:55:37;;;;;;;10.55;6.90;;;;;;;21.07;76.42;100706.78;4943881;28;20047;-73
2022/06/03 00:58:05;;;;;;;13.85;7.68;;;;;;;21.10;76.17;100712.00;4944838;28;20066;-72
2022/06/03 01:00:55;;;;;;;13.23;7.57;;;;;;;20.94;76.38;100709.06;4947500;28;20839;-72
2022/06/03 01:04:11;;;;;;;16.38;7.40;;;;;;;20.88;76.46;100709.28;4946398;28;20196;-72
2022/06/03 01:07:21;;;;;;;14.75;8.02;;;;;;;20.84;76.60;100707.69;4845866;29;20619;-72
2022/06/03 01:10:21;;;;;;;10.55;7.32;;;;;;;20.95;76.12;100707.25;4932627;28;20153;-72
2022/06/03 01:13:06;;;;;;;8.05;6.65;;;;;;;20.94;75.91;100702.88;4946230;28;20059;-71
2022/06/03 01:15:40;;;;;;;9.90;6.28;;;;;;;20.77;75.76;100692.84;4950162;28;20463;-72
2022/06/03 01:18:36;;;;;;;14.13;6.43;;;;;;;20.93;75.54;100706.44;4948140;28;20635;-72
2022/06/03 01:21:20;;;;;;;14.25;6.85;;;;;;;20.81;75.27;100698.00;4948419;28;20089;-72
2022/06/03 01:24:10;;;;;;;9.80;7.18;;;;;;;20.99;75.23;100695.53;4946941;28;20043;-72
2022/06/03 01:26:41;;;;;;;11.27;6.85;;;;;;;21.06;74.62;100684.56;4947925;28;20047;-72
2022/06/03 01:29:16;;;;;;;13.15;7.18;;;;;;;21.15;73.43;100687.81;4948820;28;20051;-72
2022/06/03 01:32:12;;;;;;;10.45;6.65;;;;;;;21.11;74.00;100688.84;4945209;28;20106;-71
2022/06/03 01:35:12;;;;;;;10.55;6.80;;;;;;;21.17;73.44;100688.63;4945069;28;20051;-72
2022/06/03 01:38:00;;;;;;;11.27;6.20;;;;;;;21.22;73.33;100695.50;4944545;28;20047;-73
2022/06/03 01:41:20;;;;;;;10.57;5.57;;;;;;;21.31;73.37;100696.97;4947994;28;20109;-72
2022/06/03 01:44:12;;;;;;;16.27;6.90;;;;;;;20.89;74.06;100707.50;4945113;28;20059;-72
2022/06/03 01:46:59;;;;;;;7.43;5.30;;;;;;;20.63;73.21;100638.22;4948344;28;20070;-72
2022/06/03 01:49:50;;;;;;;12.50;6.18;;;;;;;20.83;74.22;100719.25;4947114;28;20075;-72
2022/06/03 01:52:48;;;;;;;9.02;5.40;;;;;;;20.76;74.34;100739.97;4944375;28;20070;-71
2022/06/03 01:55:31;;;;;;;11.90;6.00;;;;;;;20.60;75.36;100733.44;4949762;28;20061;-71
2022/06/03 01:58:24;;;;;;;9.48;6.18;;;;;;;20.71;75.15;100723.25;4944205;28;20051;-71
2022/06/03 02:01:15;;;;;;;12.77;5.97;;;;;;;21.02;74.12;100722.97;4944473;28;20051;-71
2022/06/03 02:03:56;;;;;;;10.35;5.93;;;;;;;21.05;73.44;100735.34;4948271;28;20264;-71
2022/06/03 02:06:21;;;;;;;7.60;5.22;;;;;;;20.94;74.29;100727.75;4947595;28;20515;-71
2022/06/03 02:08:53;;;;;;;10.70;6.03;;;;;;;20.65;74.64;100728.84;4945007;28;20167;-71
2022/06/03 02:11:52;;;;;;;13.60;5.87;;;;;;;20.74;74.87;100720.47;4948158;28;20042;-72
2022/06/03 02:14:30;;;;;;;13.48;5.72;;;;;;;20.82;73.74;100733.53;4949493;28;20135;-71
2022/06/03 02:17:11;;;;;;;9.60;4.93;;;;;;;20.68;74.58;100735.84;4948391;28;20047;-72
2022/06/03 02:19:58;;;;;;;20.10;7.05;;;;;;;20.69;74.52;100732.25;4947306;28;20059;-71
2022/06/03 02:22:39;;;;;;;19.83;5.32;;;;;;;20.67;74.75;100729.63;4932514;28;20039;-72
2022/06/03 02:25:23;;;;;;;12.45;5.35;;;;;;;20.64;74.31;100735.09;4948250;28;20047;-71
2022/06/03 02:28:11;;;;;;;13.82;4.88;;;;;;;20.75;74.30;100730.22;4948031;28;20082;-72
2022/06/03 02:31:30;;;;;;;14.60;4.85;;;;;;;20.77;74.06;100739.03;4935120;28;20043;-71
2022/06/03 02:34:20;;;;;;;14.77;4.50;;;;;;;20.82;73.25;100755.75;4853363;29;20053;-72
2022/06/03 02:37:13;;;;;;;13.52;4.88;;;;;;;20.54;74.26;100755.84;4943277;28;20055;-72
2022/06/03 02:39:58;;;;;;;10.57;6.13;;;;;;;20.22;74.97;100709.00;4951027;28;20491;-72
2022/06/03 02:43:14;;;;;;;6.20;4.50;;;;;;;20.56;74.68;100762.03;4932311;28;20062;-71
2022/06/03 02:45:51;;;;;;;12.55;5.00;;;;;;;20.26;73.65;100707.97;4852198;29;20097;-71
2022/06/03 02:48:38;;;;;;;9.73;5.50;;;;;;;20.24;73.55;100699.16;4850464;29;20223;-71
2022/06/03 02:51:22;;;;;;;18.73;4.43;;;;;;;20.12;74.53;100688.94;4857308;29;20122;-72
2022/06/03 02:54:18;;;;;;;11.23;4.18;;;;;;;20.27;74.21;100704.38;4857910;29;20160;-70
2022/06/03 02:56:49;;;;;;;6.45;3.55;;;;;;;20.70;74.37;100789.97;4889268;29;20134;-71
2022/06/03 02:59:29;;;;;;;6.68;3.70;;;;;;;19.82;75.03;100700.59;4930110;28;20067;-71
2022/06/03 03:02:18;;;;;;;7.95;4.30;;;;;;;20.34;73.85;100697.03;4932767;28;20058;-72
2022/06/03 03:05:12;;;;;;;9.98;4.80;;;;;;;20.68;74.27;100783.84;4923898;28;20066;-72
2022/06/03 03:08:15;;;;;;;11.18;4.63;;;;;;;20.85;73.85;100776.97;4922327;28;20080;-73
2022/06/03 03:11:18;;;;;;;6.55;4.40;;;;;;;20.81;73.70;100791.38;4923484;28;20086;-72
2022/06/03 03:13:50;;;;;;;11.00;5.25;;;;;;;20.34;73.82;100764.53;4923494;28;20050;-73
2022/06/03 03:16:30;;;;;;;7.13;4.20;;;;;;;20.77;73.66;100784.38;4927963;29;20056;-72
2022/06/03 03:19:20;;;;;;;12.57;3.63;;;;;;;20.23;73.33;100732.09;4930325;28;20571;-72
2022/06/03 03:22:07;;;;;;;10.48;3.92;;;;;;;20.64;72.79;100804.41;4922848;28;20076;-73
2022/06/03 03:24:58;;;;;;;9.63;4.28;;;;;;;20.75;73.78;100798.72;4923850;28;20110;-72
2022/06/03 03:27:42;;;;;;;10.75;4.45;;;;;;;20.38;73.06;100744.84;4923621;28;20127;-73
2022/06/03 03:30:39;;;;;;;7.95;4.95;;;;;;;20.53;73.81;100764.75;4923503;28;20063;-73
2022/06/03 03:33:22;;;;;;;10.95;4.22;;;;;;;20.34;73.51;100735.22;4922138;28;21149;-73
2022/06/03 03:36:07;;;;;;;5.43;3.72;;;;;;;20.13;73.62;100731.50;4924301;28;20039;-72
2022/06/03 03:39:08;;;;;;;8.90;4.78;;;;;;;20.42;73.20;100785.63;4930332;28;20055;-73
2022/06/03 03:41:59;;;;;;;24.45;5.15;;;;;;;20.69;73.21;100822.91;4921963;29;20107;-73
2022/06/03 03:44:43;;;;;;;7.20;4.68;;;;;;;20.73;72.79;100819.22;4927830;29;20048;-73
2022/06/03 03:47:37;;;;;;;8.15;3.55;;;;;;;20.64;72.38;100828.41;4928644;28;20137;-72
2022/06/03 03:50:24;;;;;;;6.00;4.63;;;;;;;20.61;73.22;100839.19;4947948;28;20065;-72
2022/06/03 03:53:08;;;;;;;8.57;4.03;;;;;;;20.66;72.45;100845.22;4947454;28;20063;-73
2022/06/03 03:56:05;;;;;;;6.53;4.38;;;;;;;20.53;73.07;100854.53;4942321;28;20047;-73
2022/06/03 03:59:10;;;;;;;5.90;4.00;;;;;;;20.28;72.44;100793.22;4948586;28;20673;-73
2022/06/03 04:01:38;;;;;;;7.10;3.85;;;;;;;20.84;72.18;100870.41;4943395;28;20066;-72
2022/06/03 04:04:46;;;;;;;5.38;4.10;;;;;;;20.73;72.06;100875.22;4947652;28;20049;-73
2022/06/03 04:07:33;;;;;;;14.77;4.00;;;;;;;20.22;71.82;100795.16;4946378;28;20051;-72
2022/06/03 04:10:36;;;;;;;6.13;3.88;;;;;;;20.20;71.42;100810.31;4952530;28;20054;-72
2022/06/03 04:13:39;;;;;;;8.57;3.70;;;;;;;20.56;70.87;100822.50;4951995;28;20051;-72
2022/06/03 04:16:46;;;;;;;8.38;5.40;;;;;;;20.92;70.80;100873.66;4951575;28;20081;-72
2022/06/03 04:19:53;;;;;;;6.63;4.15;;;;;;;20.76;70.79;100872.44;4938563;28;20131;-73
2022/06/03 04:22:37;;;;;;;9.65;3.45;;;;;;;20.38;70.84;100816.81;4948718;28;20046;-72
2022/06/03 04:25:27;;;;;;;10.60;5.22;;;;;;;20.69;69.99;100866.44;4950257;28;20177;-73
2022/06/03 04:28:04;;;;;;;15.70;4.25;;;;;;;20.84;69.73;100887.28;4952213;28;20495;-72
2022/06/03 04:30:39;;;;;;;6.28;4.15;;;;;;;21.12;68.81;100888.97;4950783;28;20047;-72
2022/06/03 04:33:07;;;;;;;5.80;3.78;;;;;;;20.90;68.94;100910.19;4946551;28;20039;-72
2022/06/03 04:36:16;;;;;;;7.38;3.72;;;;;;;20.79;67.91;100859.91;4955221;28;20042;-72
2022/06/03 04:39:12;;;;;;;15.95;3.92;;;;;;;21.24;67.40;100909.88;4952979;28;20070;-72
2022/06/03 04:41:53;;;;;;;5.38;3.70;;;;;;;21.32;66.23;100912.25;4944577;28;20043;-72
2022/06/03 04:44:30;;;;;;;7.50;3.95;;;;;;;21.52;66.07;100919.56;4949380;28;20059;-73
2022/06/03 04:47:20;;;;;;;15.32;3.58;;;;;;;21.75;64.90;100923.16;4945518;28;20217;-73
2022/06/03 04:50:07;;;;;;;12.70;3.95;;;;;;;21.88;63.93;100916.41;4941735;28;20157;-72
2022/06/03 04:53:24;;;;;;;9.60;4.07;;;;;;;21.92;62.62;100920.72;4944161;28;20051;-73
2022/06/03 04:56:21;;;;;;;13.88;4.63;;;;;;;22.07;62.85;100917.41;4947650;28;20051;-72
2022/06/03 04:59:23;;;;;;;7.63;4.10;;;;;;;22.27;61.82;100922.00;4950817;28;20138;-73
2022/06/03 05:01:52;;;;;;;7.10;3.53;;;;;;;22.34;61.48;100914.63;4949692;28;20054;-72
2022/06/03 05:04:55;;;;;;;7.75;3.63;;;;;;;22.32;60.83;100887.94;4932688;28;20515;-72
2022/06/03 05:07:45;;;;;;;5.40;4.10;;;;;;;22.79;60.43;100928.81;4951190;28;20062;-71
2022/06/03 05:10:23;;;;;;;10.35;3.67;;;;;;;22.82;59.51;100907.25;4951482;28;20059;-72
2022/06/03 05:13:06;;;;;;;10.35;4.80;;;;;;;23.18;59.17;100913.72;4949600;28;20057;-72
2022/06/03 05:16:00;;;;;;;10.50;4.28;;;;;;;23.28;58.06;100922.22;4953193;28;20067;-72
2022/06/03 05:18:44;;;;;;;;;;;;;;;23.31;57.46;100924.75;4949834;28;20084;-72
2022/06/03 05:21:22;;;;;;;17.40;4.38;;;;;;;23.37;57.63;100926.28;4944406;28;19927;-71
2022/06/03 05:24:16;;;;;;;12.18;4.25;;;;;;;23.31;57.43;100935.44;4945747;28;20038;-72
2022/06/03 05:27:03;;;;;;;12.02;3.67;;;;;;;23.27;56.23;100868.72;4928363;28;20031;-71
2022/06/03 05:29:50;;;;;;;23.70;3.75;;;;;;;23.30;56.40;100869.47;4947122;28;20066;-72
2022/06/03 05:32:52;;;;;;;7.97;4.30;;;;;;;23.37;56.24;100860.19;4934529;28;20055;-73
2022/06/03 05:35:31;;;;;;;34.53;4.53;;;;;;;24.00;55.90;100940.34;4934718;28;20066;-73
2022/06/03 05:37:59;;;;;;;7.57;3.00;;;;;;;24.22;54.73;100942.00;4944322;28;20055;-72
2022/06/03 05:40:36;;;;;;;10.75;4.47;;;;;;;23.84;55.93;100922.41;4938734;28;20063;-72
2022/06/03 05:43:33;;;;;;;18.35;5.05;;;;;;;23.37;55.47;100889.66;4945581;28;20043;-72
2022/06/03 05:46:02;;;;;;;17.00;5.20;;;;;;;23.74;55.09;100944.28;4933590;28;20149;-73
2022/06/03 05:48:51;;;;;;;8.85;3.30;;;;;;;23.31;54.93;100889.06;4920698;28;20054;-72
2022/06/03 05:51:35;;;;;;;12.20;4.35;;;;;;;23.21;54.84;100820.81;4919096;28;20112;-73
2022/06/03 05:54:17;;;;;;;9.27;4.20;;;;;;;23.50;54.96;100878.38;4922635;28;20054;-72
2022/06/03 05:56:45;;;;;;;17.88;4.80;;;;;;;24.17;54.71;100954.78;4920816;29;20498;-73
2022/06/03 05:59:29;;;;;;;11.30;4.72;;;;;;;24.29;55.46;100961.34;4923419;29;20083;-72
2022/06/03 06:02:21;;;;;;;10.48;4.78;;;;;;;24.54;54.32;100956.56;4923564;28;20606;-73
2022/06/03 06:04:59;;;;;;;16.98;5.30;;;;;;;24.61;53.70;100955.31;4920433;28;20056;-73
2022/06/03 06:07:42;;;;;;;13.02;3.55;;;;;;;24.33;54.67;100955.78;4919024;28;20056;-73
2022/06/03 06:10:57;;;;;;;13.45;3.83;;;;;;;24.11;54.48;100888.88;4926026;28;20048;-72
2022/06/03 06:14:01;;;;;;;7.32;4.63;;;;;;;24.47;53.21;100940.81;4890208;29;20077;-72
2022/06/03 06:16:41;;;;;;;8.15;3.70;;;;;;;24.32;53.74;100959.38;4912934;29;20134;-73
2022/06/03 06:19:28;;;;;;;13.70;4.18;;;;;;;24.02;54.26;100962.59;4925518;28;20059;-72
2022/06/03 06:22:34;;;;;;;5.90;3.13;;;;;;;24.18;53.92;100960.03;4925381;28;20062;-72
2022/06/03 06:25:25;;;;;;;5.70;4.10;;;;;;;24.35;54.74;100959.25;4923450;28;20070;-72
2022/06/03 06:28:15;;;;;;;6.15;3.85;;;;;;;23.94;54.27;100894.19;4922704;28;20616;-72
2022/06/03 06:31:15;;;;;;;8.38;4.38;;;;;;;24.23;52.34;100895.44;4940363;28;20051;-72
2022/06/03 06:34:15;;;;;;;12.45;4.60;;;;;;;24.62;53.38;100915.91;4918282;29;21682;-73
2022/06/03 06:36:58;;;;;;;18.25;4.30;;;;;;;24.66;54.26;100962.28;4922679;28;20414;-73
2022/06/03 06:39:47;;;;;;;5.28;3.28;;;;;;;24.64;53.48;100901.47;4922375;28;20052;-73
2022/06/03 06:42:39;;;;;;;9.55;4.47;;;;;;;25.19;52.97;100953.28;4928220;28;20109;-72
2022/06/03 06:45:12;;;;;;;16.23;4.38;;;;;;;24.83;51.32;100893.34;4921082;28;20046;-72
2022/06/03 06:47:52;;;;;;;10.43;5.57;;;;;;;25.46;52.88;100949.16;4932943;28;20039;-72
2022/06/03 06:50:26;;;;;;;12.70;4.53;;;;;;;25.22;51.81;100966.59;4947850;28;20078;-72
2022/06/03 06:53:13;;;;;;;7.75;4.18;;;;;;;25.27;52.98;100967.22;4940910;28;20102;-72
2022/06/03 06:55:49;;;;;;;10.55;4.75;;;;;;;25.40;52.00;100948.59;4945266;28;20145;-72
2022/06/03 06:58:43;;;;;;;9.60;3.35;;;;;;;25.79;52.13;100964.41;4944969;28;20047;-72
2022/06/03 07:01:11;;;;;;;12.00;5.47;;;;;;;25.74;50.66;100969.16;4942092;28;20074;-72
2022/06/03 07:04:06;;;;;;;10.85;4.63;;;;;;;25.77;51.06;100962.75;4948631;28;20110;-72
2022/06/03 07:06:51;;;;;;;16.25;4.53;;;;;;;25.89;52.16;100972.84;4945720;28;20534;-71
2022/06/03 07:09:36;;;;;;;10.73;4.00;;;;;;;25.80;51.20;100974.22;4946595;28;20055;-72
2022/06/03 07:12:11;;;;;;;6.88;4.30;;;;;;;25.83;50.28;100982.09;4939911;28;20062;-72
2022/06/03 07:14:42;;;;;;;5.78;3.28;;;;;;;25.11;50.11;100948.28;4944436;28;20043;-72
2022/06/03 07:20:27;;;;;;;10.73;5.43;;;;;;;24.89;50.95;100918.13;4940997;28;20046;-72
2022/06/03 07:23:11;;;;;;;22.45;4.63;;;;;;;24.53;51.37;100862.72;4943809;28;20609;-71
2022/06/03 07:25:51;;;;;;;8.05;3.95;;;;;;;25.15;50.61;100925.72;4945770;28;20039;-71
2022/06/03 07:28:29;;;;;;;9.75;4.68;;;;;;;24.87;52.11;100912.84;4945548;28;20479;-71
2022/06/03 07:31:20;;;;;;;7.13;4.03;;;;;;;25.22;51.31;100937.03;4948249;28;20046;-71
2022/06/03 07:33:57;;;;;;;11.52;4.57;;;;;;;25.92;51.22;100983.47;4946961;28;20051;-71
2022/06/03 07:36:40;;;;;;;7.78;5.13;;;;;;;25.83;52.29;100952.53;4942820;28;20079;-72
2022/06/03 07:39:24;;;;;;;14.35;5.82;;;;;;;26.00;50.30;100974.97;4949852;28;20197;-72
2022/06/03 07:42:02;;;;;;;7.40;3.72;;;;;;;25.19;50.37;100932.69;4946035;28;20166;-72
2022/06/03 07:44:39;;;;;;;11.35;5.43;;;;;;;25.89;49.45;100992.56;4949910;28;20043;-71
2022/06/03 07:47:09;;;;;;;4.22;2.65;;;;;;;25.26;50.20;100938.59;4946535;28;20057;-71
2022/06/03 07:49:38;;;;;;;9.52;4.38;;;;;;;25.44;50.28;101002.09;4926773;29;20782;-72
2022/06/03 07:52:12;;;;;;;15.90;4.93;;;;;;;25.70;50.82;100998.03;4926350;28;20039;-70
2022/06/03 07:54:51;;;;;;;13.18;5.72;;;;;;;25.58;50.80;100995.13;4928376;28;20067;-70
2022/06/03 07:57:21;;;;;;;7.00;4.03;;;;;;;25.70;50.46;101008.78;4928533;28;20067;-70
2022/06/03 07:59:47;;;;;;;12.10;4.32;;;;;;;25.65;50.19;100957.09;4929609;28;20776;-70
2022/06/03 08:02:16;;;;;;;7.50;3.95;;;;;;;26.01;50.59;100937.25;4928381;28;20137;-71
2022/06/03 08:04:43;;;;;;;12.45;4.70;;;;;;;26.00;49.90;100927.41;4928164;28;20189;-71
2022/06/03 08:13:09;;;;;;;14.93;7.55;;;;;;;27.01;49.30;100995.22;4926979;28;20122;-72
2022/06/03 08:15:39;;;;;;;21.63;4.70;;;;;;;26.52;48.00;100945.09;4926181;28;20051;-71
2022/06/03 08:18:06;;;;;;;9.98;5.30;;;;;;;27.52;48.98;100998.44;4928252;28;20042;-71
2022/06/03 08:20:43;;;;;;;6.90;4.60;;;;;;;27.60;48.28;100942.19;4927779;29;20109;-71
2022/06/03 08:23:09;;;;;;;14.18;6.43;;;;;;;27.77;47.22;101024.78;4929321;28;20056;-71
2022/06/03 08:25:40;;;;;;;12.20;4.65;;;;;;;27.81;46.79;100995.75;4924288;28;20797;-72
2022/06/03 08:28:10;;;;;;;7.60;4.60;;;;;;;27.46;46.24;101001.50;4927143;29;20043;-72
2022/06/03 08:30:39;;;;;;;10.88;3.70;;;;;;;27.23;46.98;100997.53;4929715;28;20178;-70
2022/06/03 08:33:09;;;;;;;14.52;4.63;;;;;;;26.94;46.70;101010.88;4924167;28;20035;-71
2022/06/03 08:35:47;;;;;;;9.43;4.28;;;;;;;26.41;47.96;100952.91;4929379;29;20043;-70
2022/06/03 08:38:36;;;;;;;8.10;4.43;;;;;;;27.44;45.62;100995.34;4933697;29;20048;-71
2022/06/03 08:41:27;;;;;;;13.57;5.30;;;;;;;27.82;45.55;100919.28;4930599;28;20083;-71
2022/06/03 08:44:28;;;;;;;8.00;3.95;;;;;;;28.02;43.03;100943.16;4926506;28;20052;-71
2022/06/03 08:47:17;;;;;;;13.73;4.75;;;;;;;28.31;45.36;100986.31;4931567;28;20484;-71
2022/06/03 08:50:01;;;;;;;7.05;4.30;;;;;;;27.77;44.87;100993.25;4924199;28;21225;-70
2022/06/03 08:52:54;;;;;;;30.55;4.70;;;;;;;27.42;45.33;100978.41;4928409;28;20103;-71
2022/06/03 08:55:28;;;;;;;14.52;5.40;;;;;;;27.81;45.76;101002.00;4940193;28;20063;-71
2022/06/03 08:58:02;;;;;;;14.45;5.25;;;;;;;28.34;45.28;101005.00;4929949;28;20070;-70
2022/06/03 09:00:52;;;;;;;10.85;4.35;;;;;;;28.50;44.74;100996.78;4932129;28;20047;-70
2022/06/03 09:03:21;;;;;;;16.27;4.13;;;;;;;27.83;45.76;100994.72;4932316;28;20139;-70
2022/06/03 09:05:59;;;;;;;7.78;3.42;;;;;;;27.39;47.06;100979.44;4929727;29;20035;-70
2022/06/03 09:08:32;;;;;;;11.25;4.57;;;;;;;27.58;46.19;100947.72;4903331;29;20048;-71
2022/06/03 09:11:01;;;;;;;;;;;;;;;26.92;46.22;100945.44;4932295;28;20110;-70
2022/06/03 09:13:56;;;;;;;11.10;3.35;;;;;;;26.76;46.43;100923.09;4930753;28;19977;-71
2022/06/03 09:16:25;;;;;;;6.28;4.03;;;;;;;27.40;46.46;100991.13;4909824;29;20059;-71
2022/06/03 09:19:01;;;;;;;14.18;5.80;;;;;;;27.83;45.74;100927.28;4931280;28;20051;-71
2022/06/03 09:21:33;;;;;;;10.48;5.45;;;;;;;28.31;45.41;100999.81;4929929;28;20489;-70
2022/06/03 09:24:08;;;;;;;7.82;4.38;;;;;;;28.61;44.96;100930.28;4928887;28;20039;-71
2022/06/03 09:26:42;;;;;;;5.90;4.20;;;;;;;27.12;45.77;100949.66;4935073;28;20141;-71
2022/06/03 09:29:11;;;;;;;16.70;3.97;;;;;;;26.86;46.48;100933.22;4914275;29;20062;-71
2022/06/03 09:31:39;;;;;;;8.38;3.92;;;;;;;27.86;44.71;100927.13;4932110;28;20059;-71
2022/06/03 09:34:07;;;;;;;8.23;3.38;;;;;;;27.44;45.90;100998.03;4927637;28;21444;-70
2022/06/03 09:36:33;;;;;;;12.43;5.15;;;;;;;28.64;45.03;100987.78;4932849;28;20055;-72
2022/06/03 09:39:08;;;;;;;8.80;4.57;;;;;;;29.72;43.13;100994.81;4932019;28;20384;-71
2022/06/03 09:41:41;;;;;;;8.02;4.05;;;;;;;28.42;44.23;100990.03;4928353;29;20040;-71
2022/06/03 09:44:11;;;;;;;10.05;5.68;;;;;;;29.20;42.50;100924.47;4935141;29;20055;-72
2022/06/03 09:46:38;;;;;;;6.10;4.07;;;;;;;30.01;43.29;100971.91;4931336;28;20139;-72
2022/06/03 09:49:05;;;;;;;11.38;4.75;;;;;;;29.62;43.16;100987.31;4943744;28;20046;-71
2022/06/03 09:54:37;;;;;;;8.82;4.65;;;;;;;27.97;45.12;100991.16;4951241;28;20058;-71
2022/06/03 09:57:35;;;;;;;5.85;3.25;;;;;;;28.34;44.43;100951.00;4948290;28;20046;-72
2022/06/03 10:00:21;;;;;;;10.50;5.18;;;;;;;28.96;43.93;100977.47;4932641;28;20395;-72
2022/06/03 10:02:47;;;;;;;6.43;3.60;;;;;;;28.10;44.99;100991.25;4950049;28;20069;-71
2022/06/03 10:05:16;;;;;;;7.53;2.83;;;;;;;27.27;45.22;100932.56;4947632;28;20055;-71
2022/06/03 10:07:44;;;;;;;6.82;4.63;;;;;;;27.79;46.59;100985.94;4934676;28;20073;-71
2022/06/03 10:13:01;;;;;;;7.57;4.40;;;;;;;27.43;45.57;100915.44;4947169;28;20046;-71
2022/06/03 10:15:42;;;;;;;5.78;3.35;;;;;;;27.67;46.77;100966.97;4953372;28;20063;-70
2022/06/03 10:18:29;;;;;;;7.68;4.13;;;;;;;27.66;45.96;100982.28;4949543;28;20194;-71
2022/06/03 10:21:20;;;;;;;12.45;6.00;;;;;;;29.29;44.09;100982.44;4951017;28;20085;-70
2022/06/03 10:23:53;;;;;;;11.15;6.25;;;;;;;28.15;44.54;100919.81;4939933;28;20106;-70
2022/06/03 10:26:48;;;;;;;18.05;6.60;;;;;;;29.08;43.53;100927.16;4949878;28;20062;-70
2022/06/03 10:29:17;;;;;;;14.88;7.63;;;;;;;29.13;43.69;100966.44;4949959;28;20053;-72
2022/06/03 10:31:50;;;;;;;13.30;6.97;;;;;;;28.93;43.88;100923.66;4948265;28;20051;-72
2022/06/03 10:34:22;;;;;;;20.40;7.80;;;;;;;28.32;44.37;100913.28;4944031;28;20055;-71
2022/06/03 10:36:50;;;;;;;11.45;5.20;;;;;;;28.47;44.10;100903.38;4949781;28;20042;-72
2022/06/03 10:39:19;;;;;;;16.92;9.45;;;;;;;27.93;46.47;100908.69;4947866;28;20047;-73
2022/06/03 10:41:48;;;;;;;20.42;14.82;;;;;;;28.26;45.56;100981.19;4945669;28;20046;-74
2022/06/03 10:44:35;;;;;;;26.50;17.90;;;;;;;27.59;46.01;100921.63;4944641;28;20114;-73
2022/06/03 10:47:06;;;;;;;16.02;6.07;;;;;;;28.57;44.18;100949.50;4946832;28;20058;-74
2022/06/03 10:49:53;;;;;;;44.92;34.67;;;;;;;28.83;44.31;100983.72;4946435;28;20051;-75
2022/06/03 11:01:06;;;;;;;22.30;12.40;;;;;;;29.43;43.84;100973.34;4938839;28;20147;-77
2022/06/03 11:03:33;;;;;;;23.85;15.88;;;;;;;29.23;44.44;100982.88;4949603;28;20191;-78
2022/06/03 11:06:17;;;;;;;196.15;154.43;;;;;;;28.38;45.65;100984.94;4948602;28;20109;-77
2022/06/03 11:08:50;;;;;;;80.43;53.60;;;;;;;28.12;47.52;100968.59;4951186;28;20047;-77
2022/06/03 11:11:47;;;;;;;24.35;14.30;;;;;;;29.27;43.74;100988.91;4949102;28;20054;-78
2022/06/03 11:14:32;;;;;;;25.25;18.50;;;;;;;28.35;45.37;100950.91;4950518;28;20043;-78
2022/06/03 11:17:16;;;;;;;33.67;23.55;;;;;;;28.25;45.26;100917.38;4946223;28;20081;-77
2022/06/03 11:19:49;;;;;;;45.22;30.63;;;;;;;28.29;44.78;100977.44;4941136;28;20082;-77
2022/06/03 11:22:36;;;;;;;55.58;41.80;;;;;;;28.26;44.77;100910.13;4952398;28;20047;-77
2022/06/03 11:25:12;;;;;;;109.60;72.47;;;;;;;28.95;45.08;100989.28;4951725;28;20122;-79
2022/06/03 11:27:56;;;;;;;32.92;22.92;;;;;;;28.19;44.12;100921.34;4950378;28;20637;-79
2022/06/03 11:30:43;;;;;;;151.95;106.25;;;;;;;27.86;46.64;100983.78;4953081;28;20557;-78
2022/06/03 11:33:24;;;;;;;72.72;46.30;;;;;;;27.88;47.16;100978.25;4947958;28;20043;-79
2022/06/03 11:36:10;;;;;;;19.58;12.25;;;;;;;28.24;43.81;100972.34;4936247;28;20174;-79
2022/06/03 11:38:39;;;;;;;42.47;16.85;;;;;;;27.95;44.51;100979.59;4950603;28;20038;-75
2022/06/03 11:41:18;;;;;;;26.77;14.50;;;;;;;27.69;45.31;100981.22;4943750;28;20047;-76
2022/06/03 11:43:54;;;;;;;29.35;14.07;;;;;;;27.26;46.68;100919.19;4945461;28;20055;-76
2022/06/03 11:46:28;;;;;;;33.40;14.18;;;;;;;27.75;45.28;100932.28;4933069;28;20142;-76
2022/06/03 11:49:00;;;;;;;18.90;12.48;;;;;;;27.61;45.85;100997.88;4940134;28;20510;-77
2022/06/03 11:51:26;;;;;;;;;;;;;;;28.37;43.96;100999.38;4946352;28;20174;-77
2022/06/03 11:53:53;;;;;;;25.48;12.27;;;;;;;28.38;44.16;100990.34;4945109;28;20001;-76
2022/06/03 11:56:30;;;;;;;19.60;11.32;;;;;;;28.06;44.76;100976.22;4946867;28;20045;-75
2022/06/03 11:59:05;;;;;;;12.23;7.13;;;;;;;28.23;44.20;100996.72;4945110;28;21177;-75
2022/06/03 12:01:42;;;;;;;24.15;11.80;;;;;;;27.86;45.33;100999.06;4943801;28;20065;-76
2022/06/03 12:04:31;;;;;;;11.70;5.40;;;;;;;28.10;44.30;100937.28;4946630;28;20071;-76
2022/06/03 12:07:34;;;;;;;14.13;7.93;;;;;;;27.97;44.57;100931.81;4944579;28;20085;-77
2022/06/03 12:10:29;;;;;;;11.30;6.85;;;;;;;28.02;44.29;100962.03;4928032;28;20086;-76
2022/06/03 12:13:17;;;;;;;14.00;5.90;;;;;;;27.62;44.82;100921.41;4944881;28;20127;-75
2022/06/03 12:15:58;;;;;;;21.30;7.25;;;;;;;27.16;45.33;100914.34;4942466;28;20483;-75
2022/06/03 12:18:34;;;;;;;7.63;4.60;;;;;;;27.71;45.43;100936.16;4939812;28;20055;-75
2022/06/03 12:21:01;;;;;;;7.93;5.32;;;;;;;28.26;43.59;100935.31;4930527;28;20041;-76
2022/06/03 12:23:38;;;;;;;11.07;6.18;;;;;;;28.08;44.77;100918.50;4945030;28;20039;-76
2022/06/03 12:26:19;;;;;;;10.77;4.43;;;;;;;27.64;45.91;100930.28;4945427;28;20127;-76
2022/06/03 12:28:47;;;;;;;5.70;3.15;;;;;;;27.71;44.36;100915.44;4945250;28;20065;-76
2022/06/03 12:31:19;;;;;;;6.57;4.28;;;;;;;27.67;45.35;100969.66;4950123;28;20123;-75
2022/06/03 12:34:09;;;;;;;5.15;3.75;;;;;;;27.16;47.61;100929.66;4945199;28;20043;-76
2022/06/03 12:36:51;;;;;;;8.45;5.00;;;;;;;27.90;44.85;100895.41;4949410;28;20072;-76
2022/06/03 12:39:30;;;;;;;7.63;3.30;;;;;;;27.86;43.99;100935.22;4936675;28;20059;-76
2022/06/03 12:41:59;;;;;;;8.43;3.97;;;;;;;28.05;44.86;100960.97;4948444;28;20507;-75
2022/06/03 12:45:13;;;;;;;7.80;3.63;;;;;;;27.45;47.22;100960.22;4946854;28;20031;-76
2022/06/03 12:47:48;;;;;;;6.25;3.97;;;;;;;27.14;47.34;100889.31;4945431;28;20059;-76
2022/06/03 12:50:25;;;;;;;12.40;5.95;;;;;;;27.58;47.78;100953.09;4909183;29;20132;-76
2022/06/03 12:52:59;;;;;;;7.90;3.95;;;;;;;27.58;45.01;100883.00;4912572;29;20460;-75
2022/06/03 12:55:29;;;;;;;8.93;3.47;;;;;;;27.38;45.30;100883.41;4908328;29;20746;-75
2022/06/03 12:58:03;;;;;;;14.07;5.97;;;;;;;27.36;45.92;100923.91;4912421;29;20056;-74